Have a Safe July 4th! 

Flight Track Log - Related Links

Times and Time Zones

All times are in EDT time to prevent confusion due to time zone crossing. See the JBU185 flight status page for this flight to view local times or setup timezone preferences in your user account.

Time Position Orientation Groundspeed Altitude Reporting Facility
EDT Latitude Longitude Course Direction KTS MPH feet Rate Location/Type
Fri 06:09:00 AM 40.7509 -73.9430 129° Southeast  Level Estimated
Fri 06:10:00 AM 40.7490 -73.9402 132° Southeast  Level Estimated
Fri 06:11:00 AM 40.7471 -73.9374 132° Southeast  Level Estimated
Fri 06:12:00 AM 40.7452 -73.9345 132° Southeast  Level Estimated
Fri 06:13:00 AM 40.7432 -73.9317 132° Southeast  Level Estimated
Fri 06:14:00 AM 40.7413 -73.9288 132° Southeast  Level Estimated
Fri 06:15:00 AM 40.7394 -73.9260 132° Southeast  Level Estimated
Fri 06:16:00 AM 40.7375 -73.9232 132° Southeast  Level Estimated
Fri 06:17:00 AM 40.7356 -73.9203 132° Southeast  Level Estimated
Fri 06:18:00 AM 40.7336 -73.9175 132° Southeast  Level Estimated
Fri 06:19:00 AM 40.7317 -73.9146 132° Southeast  Level Estimated
Fri 06:20:00 AM 40.7298 -73.9118 132° Southeast  Level Estimated
Fri 06:21:00 AM 40.7279 -73.9090 132° Southeast  Level Estimated
Fri 06:22:00 AM 40.7260 -73.9061 132° Southeast  Level Estimated
Fri 06:23:00 AM 40.7240 -73.9033 132° Southeast  Level Estimated
Fri 06:24:00 AM 40.7221 -73.9004 132° Southeast  Level Estimated
Fri 06:25:00 AM 40.7202 -73.8976 132° Southeast  Level Estimated
Fri 06:26:00 AM 40.7183 -73.8948 132° Southeast  Level Estimated
Fri 06:27:00 AM 40.7164 -73.8919 132° Southeast  Level Estimated
Fri 06:28:00 AM 40.7144 -73.8891 132° Southeast  Level Estimated
Fri 06:29:00 AM 40.7125 -73.8862 132° Southeast  Level Estimated
Fri 06:30:00 AM 40.7106 -73.8834 132° Southeast  Level Estimated
Fri 06:31:00 AM 40.7087 -73.8806 132° Southeast  Level Estimated
Fri 06:32:00 AM 40.7068 -73.8777 132° Southeast  Level Estimated
Fri 06:33:00 AM 40.7048 -73.8749 132° Southeast  Level Estimated
Fri 06:34:00 AM 40.7029 -73.8720 132° Southeast  Level Estimated
Fri 06:35:00 AM 40.7010 -73.8692 132° Southeast  Level Estimated
Fri 06:36:00 AM 40.6991 -73.8664 132° Southeast  Level Estimated
Fri 06:37:00 AM 40.6972 -73.8635 132° Southeast  Level Estimated
Fri 06:38:00 AM 40.6952 -73.8607 132° Southeast  Level Estimated
Fri 06:39:00 AM 40.6933 -73.8578 132° Southeast  Level Estimated
Fri 06:40:00 AM 40.6914 -73.8550 132° Southeast  Level Estimated
Fri 06:41:00 AM 40.6895 -73.8522 132° Southeast  Level Estimated
Fri 06:42:00 AM 40.6876 -73.8493 132° Southeast  Level Estimated
Fri 06:43:00 AM 40.6856 -73.8465 132° Southeast  Level Estimated
Fri 06:44:00 AM 40.6837 -73.8437 132° Southeast  Level Estimated
Fri 06:45:00 AM 40.6818 -73.8408 132° Southeast  Level Estimated
Fri 06:46:00 AM 40.6799 -73.8380 132° Southeast  Level Estimated
Fri 06:47:00 AM 40.6780 -73.8352 132° Southeast  Level Estimated
Fri 06:48:00 AM 40.6760 -73.8323 132° Southeast  Level Estimated
Fri 06:49:00 AM 40.6741 -73.8295 132° Southeast  Level Estimated
Fri 06:50:00 AM 40.6722 -73.8267 132° Southeast  Level Estimated
Fri 06:51:00 AM 40.6703 -73.8238 132° Southeast  Level Estimated
Fri 06:52:00 AM 40.6684 -73.8210 132° Southeast  Level Estimated
Fri 06:53:00 AM 40.6664 -73.8182 132° Southeast  Level Estimated
Fri 06:54:00 AM 40.6645 -73.8154 132° Southeast  Level Estimated
Fri 06:55:00 AM 40.6626 -73.8125 132° Southeast  Level Estimated
Fri 06:56:00 AM 40.6607 -73.8097 132° Southeast  Level Estimated
Fri 06:57:00 AM 40.6587 -73.8069 132° Southeast  Level Estimated
Fri 06:58:00 AM 40.6568 -73.8040 132° Southeast  Level Estimated
Fri 06:59:00 AM 40.6549 -73.8012 132° Southeast  Level Estimated
Fri 07:00:00 AM 40.6530 -73.7984 132° Southeast  Level Estimated
Fri 07:01:00 AM 40.6511 -73.7955 132° Southeast  Level Estimated
Fri 07:02:00 AM 40.6491 -73.7927 132° Southeast  Level Estimated
Fri 07:03:00 AM 40.6472 -73.7899 132° Southeast  Level Estimated
Fri 07:04:00 AM 40.6453 -73.7870 132° Southeast  Level Estimated
Fri 07:05:00 AM 40.6433 -73.7842 132° Southeast  Level Estimated
Fri 07:06:00 AM 40.6414 -73.7814 132° Southeast  Level Estimated
Fri 07:07:00 AM 40.6398 -73.7789 132° Southeast  Level Estimated
Fri 07:08:00 AM 40.6398 -73.7789 72° East  Level Estimated
Fri 07:09:00 AM 40.6398 -73.7789 72° East  Level Estimated
Fri 07:10:00 AM 40.6398 -73.7789 72° East  Level Estimated
Fri 07:11:00 AM 40.6398 -73.7789 72° East  Level Estimated
Fri 07:12:00 AM 40.6398 -73.7789 72° East  Level Estimated
Fri 07:13:00 AM 40.6398 -73.7789 72° East  Level Estimated
Fri 07:14:00 AM 40.6398 -73.7789 72° East  Level Estimated
Fri 07:15:00 AM 40.6398 -73.7789 72° East  Level Estimated
Fri 07:16:00 AM 40.6398 -73.7789 72° East  Level Estimated
Fri 07:17:00 AM 40.6398 -73.7789 72° East  Level Estimated
Fri 07:18:00 AM 40.6398 -73.7789 72° East  Level Estimated
Fri 07:19:00 AM 40.6398 -73.7789 72° East  Level Estimated
Fri 07:20:00 AM 40.6398 -73.7789 72° East  Level Estimated
Fri 07:21:00 AM 40.6398 -73.7789 72° East  Level Estimated
Fri 07:22:00 AM 40.6398 -73.7789 72° East  Level Estimated
Fri 07:23:00 AM 40.6398 -73.7789 72° East  Level Estimated
Fri 07:24:00 AM 40.6398 -73.7789 72° East  Level Estimated

Login

Don't have an account? Register now (free) for customized features, flight alerts, and more!